Etusivu
METAR-TAF:

METAR-TAF

Lentoasemat :

Kokkola-Pietarsaaren lentoasema

Kokkola, Suomi

Leveyspiiri: 63-43N, Pituuspiiri: 023-09E, korkeus merenpinnasta: 25 m

Tämänhetkinen sää

Tämä raportti tehtiin 32 minuuttia sitten, kello 12.50 UTC
Tuuli 13 kn lounaasta, vaihdellen etelän ja lännen välillä
Lämpötila 10°C
Kosteus 66%
Ilmanpaine 1012 hPa
Näkyvyys 10 km tai enemmän
Muutamia pilviä 2900 ft:n korkeudessa

METAR: EFKK 251250Z 22013KT 190V260 9999 FEW029 10/04 Q1012

Aika: 16:22 (13:22 UTC)

Sääennuste

Tämä raportti tehtiin 1 tunti ja 52 minuuttia sitten, kello 11.30 UTC
Ennuste voimassa 25. päivästä klo 12 UTC - 25. päivään klo 21 UTC
Tuuli 9 kn lännestä/lounaasta
Näkyvyys 10 km tai enemmän
Hajanaisia pilviä 3000 ft:n korkeudessa

TAF: EFKK 251130Z 2512/2521 25009KT 9999 SCT030

Säähavainnot ja -ennusteet yli 4000 lentoasemalta (METAR- ja TAF-raportit).

Käytössä olevat sääasemat on merkitty karttaan keltaisilla ja punaisilla pisteillä.

Aseta hiiri pisteen päälle nähdäksesi sääaseman nimen.

Klikkaa sitten nähdäksesi säähavainnot ja -ennusteet.

Kartan vaihtaminen: klikkaa mustalla rastilla varustettuja vihreitä pisteitä, niin voit zoomata sisään; viivalla varustettua vihreää pistettä, niin voit zoomata ulos tai vihreitä nuolia, niin pääset viereisille kartoille.


METAR-TAF: